createdAt,value
2023-05-22T00:00:27.026Z,20.20
2023-05-22T00:03:54.889Z,20.00
2023-05-22T00:07:23.502Z,20.00
2023-05-22T00:10:47.142Z,19.90
2023-05-22T00:14:13.661Z,19.80
2023-05-22T00:17:38.067Z,19.80
2023-05-22T00:21:06.020Z,19.70
2023-05-22T00:24:32.053Z,19.60
2023-05-22T00:27:58.402Z,19.60
2023-05-22T00:31:22.406Z,19.50
2023-05-22T00:34:47.046Z,19.50
2023-05-22T00:38:29.657Z,19.40
2023-05-22T00:41:55.001Z,19.40
2023-05-22T00:45:19.329Z,19.40
2023-05-22T00:48:43.954Z,19.40
2023-05-22T00:52:09.266Z,19.40
2023-05-22T00:55:35.405Z,19.20
2023-05-22T00:59:02.193Z,19.20
2023-05-22T01:02:25.964Z,19.20
2023-05-22T01:05:51.100Z,19.20
2023-05-22T01:09:15.472Z,19.20
2023-05-22T01:12:49.421Z,19.20
2023-05-22T01:16:23.954Z,19.20
2023-05-22T01:20:07.296Z,19.10
2023-05-22T01:23:59.358Z,19.00
2023-05-22T01:28:27.381Z,19.00
2023-05-22T01:31:55.599Z,18.90
2023-05-22T01:35:21.919Z,18.90
2023-05-22T01:38:49.006Z,18.90
2023-05-22T01:42:15.795Z,18.90
2023-05-22T01:45:39.786Z,18.90
2023-05-22T01:49:04.862Z,18.90
2023-05-22T01:52:46.374Z,18.90
2023-05-22T01:56:20.836Z,18.90
2023-05-22T01:59:49.560Z,18.80
2023-05-22T02:03:22.330Z,18.70
2023-05-22T02:06:49.716Z,18.60
2023-05-22T02:10:14.350Z,18.60
2023-05-22T02:13:38.815Z,18.50
2023-05-22T02:17:03.365Z,18.50
2023-05-22T02:20:27.109Z,18.50
2023-05-22T02:23:59.472Z,18.60
2023-05-22T02:27:23.086Z,18.60
2023-05-22T02:30:49.715Z,18.50
2023-05-22T02:34:13.474Z,18.60
2023-05-22T02:37:38.466Z,18.60
2023-05-22T02:41:04.438Z,18.50
2023-05-22T02:44:30.148Z,18.50
2023-05-22T02:47:54.129Z,18.50
2023-05-22T02:51:19.166Z,18.50
2023-05-22T02:54:43.141Z,18.50
2023-05-22T02:58:11.261Z,18.60
2023-05-22T03:01:37.379Z,18.60
2023-05-22T03:05:01.519Z,18.60
2023-05-22T03:08:28.368Z,18.60
2023-05-22T03:11:53.117Z,18.50
2023-05-22T03:15:18.884Z,18.50
2023-05-22T03:18:43.130Z,18.50
2023-05-22T03:22:07.669Z,18.50
2023-05-22T03:25:32.163Z,18.50
2023-05-22T03:28:56.415Z,18.50
2023-05-22T03:32:22.534Z,18.50
2023-05-22T03:35:46.688Z,18.40
2023-05-22T03:39:11.138Z,18.40
2023-05-22T03:42:41.772Z,18.30
2023-05-22T03:46:06.346Z,18.40
2023-05-22T03:49:32.544Z,18.40
2023-05-22T03:52:56.150Z,18.40
2023-05-22T03:56:21.057Z,18.40
2023-05-22T03:59:46.419Z,18.40
2023-05-22T04:03:13.041Z,18.30
2023-05-22T04:06:43.001Z,18.30
2023-05-22T04:10:10.447Z,18.30
2023-05-22T04:13:34.493Z,18.20
2023-05-22T04:17:08.632Z,18.20
2023-05-22T04:20:33.184Z,18.20
2023-05-22T04:24:02.274Z,18.30
2023-05-22T04:27:29.720Z,18.20
2023-05-22T04:30:54.459Z,18.20
2023-05-22T04:34:18.580Z,18.30
2023-05-22T04:37:47.925Z,18.20
2023-05-22T04:41:14.298Z,18.10
2023-05-22T04:44:38.234Z,18.10
2023-05-22T04:48:02.991Z,18.20
2023-05-22T04:51:32.238Z,18.30
2023-05-22T04:55:00.684Z,18.40
2023-05-22T04:58:28.245Z,18.50
2023-05-22T05:01:53.317Z,18.40
2023-05-22T05:05:17.373Z,18.40
2023-05-22T05:08:44.245Z,18.50
2023-05-22T05:12:08.701Z,18.50
2023-05-22T05:15:34.051Z,18.50
2023-05-22T05:19:01.233Z,18.50
2023-05-22T05:22:27.283Z,18.70
2023-05-22T05:25:57.658Z,18.70
2023-05-22T05:29:23.316Z,18.70
2023-05-22T05:33:15.380Z,18.90
2023-05-22T05:37:07.278Z,19.00
2023-05-22T05:40:31.377Z,19.00
2023-05-22T05:43:57.862Z,19.00
2023-05-22T05:47:24.858Z,19.20
2023-05-22T05:50:50.680Z,19.30
2023-05-22T05:54:15.206Z,19.40
2023-05-22T05:57:42.023Z,19.50
2023-05-22T06:01:13.589Z,19.80
2023-05-22T06:04:38.330Z,20.20
2023-05-22T06:08:04.295Z,20.60
2023-05-22T06:11:28.377Z,20.60
2023-05-22T06:14:52.473Z,20.80
2023-05-22T06:18:19.496Z,20.70
2023-05-22T06:21:50.287Z,20.80
2023-05-22T06:25:30.350Z,20.70
2023-05-22T06:28:56.474Z,20.60
2023-05-22T06:32:22.566Z,20.20
2023-05-22T06:35:49.508Z,20.00
2023-05-22T06:39:13.953Z,20.00
2023-05-22T06:42:59.372Z,20.10
2023-05-22T06:46:25.825Z,20.30
2023-05-22T06:49:54.219Z,20.30
2023-05-22T06:53:18.745Z,20.60
2023-05-22T06:56:43.461Z,20.80
2023-05-22T07:00:15.556Z,21.20
2023-05-22T07:04:00.396Z,21.40
2023-05-22T07:07:31.089Z,21.70
2023-05-22T07:10:55.679Z,22.00
2023-05-22T07:14:19.491Z,22.50
2023-05-22T07:17:44.694Z,22.90
2023-05-22T07:21:09.224Z,22.90
2023-05-22T07:24:33.029Z,22.70
2023-05-22T07:27:58.329Z,22.70
2023-05-22T07:31:22.824Z,22.80
2023-05-22T07:34:48.686Z,22.70
2023-05-22T07:38:13.149Z,22.70
2023-05-22T07:41:50.071Z,23.00
2023-05-22T07:45:15.004Z,23.50
2023-05-22T07:48:38.895Z,24.70
2023-05-22T07:52:05.127Z,25.30
2023-05-22T07:55:28.925Z,26.40
2023-05-22T07:58:52.918Z,27.40
2023-05-22T08:02:18.907Z,27.70
2023-05-22T08:05:42.701Z,27.10
2023-05-22T08:09:08.300Z,26.30
2023-05-22T08:12:32.067Z,26.20
2023-05-22T08:16:00.682Z,26.20
2023-05-22T08:19:25.038Z,26.60
2023-05-22T08:22:48.893Z,27.20
2023-05-22T08:26:14.322Z,27.80
2023-05-22T08:29:37.990Z,27.80
2023-05-22T08:33:01.773Z,28.00
2023-05-22T08:36:25.498Z,28.10
2023-05-22T08:39:49.133Z,28.50
2023-05-22T08:43:14.207Z,29.70
2023-05-22T08:46:41.549Z,31.50
2023-05-22T08:50:05.942Z,31.80
2023-05-22T08:53:31.934Z,32.60
2023-05-22T08:56:57.113Z,32.90
2023-05-22T09:00:23.861Z,32.60
2023-05-22T09:03:49.216Z,32.00
2023-05-22T09:07:14.465Z,32.30
2023-05-22T09:10:38.554Z,33.30
2023-05-22T09:14:09.686Z,32.90
2023-05-22T09:17:47.067Z,33.90
2023-05-22T09:21:25.861Z,33.90
2023-05-22T09:24:53.522Z,33.10
2023-05-22T09:28:17.142Z,33.30
2023-05-22T09:31:43.862Z,34.70
2023-05-22T09:35:11.007Z,34.50
2023-05-22T09:38:34.828Z,34.50
2023-05-22T09:42:02.696Z,34.20
2023-05-22T09:45:28.421Z,33.40
2023-05-22T09:48:53.801Z,33.40
2023-05-22T09:52:20.462Z,34.90
2023-05-22T09:55:45.974Z,35.60
2023-05-22T09:59:10.559Z,35.60
2023-05-22T10:02:34.697Z,35.90
2023-05-22T10:05:59.664Z,36.60
2023-05-22T10:09:30.723Z,37.30
2023-05-22T10:12:58.290Z,37.30
2023-05-22T10:16:23.431Z,36.60
2023-05-22T10:19:48.484Z,35.40
2023-05-22T10:23:13.062Z,34.20
2023-05-22T10:26:39.694Z,32.50
2023-05-22T10:30:12.316Z,32.60
2023-05-22T10:33:49.651Z,33.50
2023-05-22T10:37:31.361Z,34.10
2023-05-22T10:40:55.782Z,35.50
2023-05-22T10:44:20.911Z,35.80
2023-05-22T10:47:44.619Z,35.60
2023-05-22T10:51:09.265Z,34.50
2023-05-22T10:54:41.028Z,34.30
2023-05-22T10:58:14.465Z,33.60
2023-05-22T11:01:39.660Z,31.90
2023-05-22T11:05:36.500Z,30.20
2023-05-22T11:09:00.693Z,29.00
2023-05-22T11:12:27.467Z,28.60
2023-05-22T11:15:51.292Z,28.40
2023-05-22T11:19:23.299Z,28.40
2023-05-22T11:22:56.940Z,28.20
2023-05-22T11:26:26.380Z,28.30
2023-05-22T11:29:51.908Z,28.70
2023-05-22T11:33:16.402Z,29.20
2023-05-22T11:36:41.616Z,29.30
2023-05-22T11:40:06.723Z,28.80
2023-05-22T11:43:33.133Z,28.70
2023-05-22T11:46:56.816Z,28.40
2023-05-22T11:50:33.524Z,28.50
2023-05-22T11:54:06.166Z,28.60
2023-05-22T11:57:29.786Z,28.10
2023-05-22T12:00:55.196Z,27.60
2023-05-22T12:04:19.605Z,27.30
2023-05-22T12:07:43.671Z,27.10
2023-05-22T12:11:12.313Z,27.30
2023-05-22T12:14:36.194Z,27.30
2023-05-22T12:18:00.346Z,27.30
2023-05-22T12:21:24.094Z,27.10
2023-05-22T12:24:47.783Z,27.00
2023-05-22T12:28:12.732Z,27.30
2023-05-22T12:31:38.432Z,27.60
2023-05-22T12:35:02.157Z,27.80
2023-05-22T12:38:27.641Z,28.20
2023-05-22T12:41:51.640Z,28.40
2023-05-22T12:45:17.872Z,28.20
2023-05-22T12:48:41.709Z,28.30
2023-05-22T12:52:05.462Z,28.40
2023-05-22T12:55:29.075Z,28.30
2023-05-22T12:58:52.736Z,28.00
2023-05-22T13:02:17.740Z,27.70
2023-05-22T13:05:41.838Z,27.50
2023-05-22T13:09:05.871Z,27.20
2023-05-22T13:12:30.945Z,27.10
2023-05-22T13:15:54.646Z,27.10
2023-05-22T13:19:19.776Z,27.20
2023-05-22T13:22:43.481Z,27.60
2023-05-22T13:26:09.242Z,27.80
2023-05-22T13:29:33.987Z,27.80
2023-05-22T13:32:58.140Z,28.00
2023-05-22T13:36:23.223Z,28.20
2023-05-22T13:39:46.850Z,28.10
2023-05-22T13:43:10.495Z,28.30
2023-05-22T13:46:34.096Z,28.10
2023-05-22T13:49:57.811Z,27.30
2023-05-22T13:53:22.809Z,27.30
2023-05-22T13:56:46.476Z,27.30
2023-05-22T14:00:11.055Z,27.30
2023-05-22T14:03:35.148Z,27.50
2023-05-22T14:06:58.868Z,28.00
2023-05-22T14:10:23.803Z,28.10
2023-05-22T14:13:47.634Z,28.20
2023-05-22T14:17:11.951Z,28.60
2023-05-22T14:20:38.088Z,28.80
2023-05-22T14:24:07.122Z,28.70
2023-05-22T14:27:43.116Z,28.50
2023-05-22T14:31:19.495Z,28.10
2023-05-22T14:34:43.124Z,26.70
2023-05-22T14:38:06.988Z,24.70
2023-05-22T14:41:30.613Z,24.00
2023-05-22T14:44:55.710Z,24.00
2023-05-22T14:48:19.391Z,23.80
2023-05-22T14:51:47.515Z,23.10
2023-05-22T14:55:11.430Z,22.90
2023-05-22T14:58:35.067Z,22.50
2023-05-22T15:02:00.755Z,21.90
2023-05-22T15:05:26.579Z,21.50
2023-05-22T15:08:50.437Z,21.60
2023-05-22T15:12:14.157Z,21.50
2023-05-22T15:15:37.942Z,21.70
2023-05-22T15:19:03.078Z,21.80
2023-05-22T15:22:27.028Z,21.80
2023-05-22T15:25:50.698Z,21.90
2023-05-22T15:29:14.406Z,22.00
2023-05-22T15:32:38.319Z,21.70
2023-05-22T15:36:03.562Z,21.50
2023-05-22T15:39:28.098Z,21.60
2023-05-22T15:42:53.108Z,21.50
2023-05-22T15:46:17.409Z,21.30
2023-05-22T15:49:41.225Z,21.60
2023-05-22T15:53:07.130Z,21.60
2023-05-22T15:56:30.751Z,21.40
2023-05-22T15:59:55.210Z,21.40
2023-05-22T16:03:19.098Z,21.20
2023-05-22T16:06:42.965Z,20.90
2023-05-22T16:10:09.431Z,20.90
2023-05-22T16:13:33.280Z,21.00
2023-05-22T16:16:57.104Z,21.00
2023-05-22T16:20:22.499Z,20.30
2023-05-22T16:23:46.414Z,19.10
2023-05-22T16:27:11.489Z,18.10
2023-05-22T16:30:35.294Z,17.10
2023-05-22T16:33:58.894Z,16.70
2023-05-22T16:37:22.611Z,16.70
2023-05-22T16:40:47.566Z,16.70
2023-05-22T16:44:12.549Z,17.10
2023-05-22T16:47:36.309Z,17.30
2023-05-22T16:51:00.011Z,17.20
2023-05-22T16:54:23.669Z,17.20
2023-05-22T16:57:48.085Z,17.20
2023-05-22T17:01:13.202Z,17.00
2023-05-22T17:04:37.042Z,17.00
2023-05-22T17:08:00.748Z,17.10
2023-05-22T17:11:26.016Z,17.10
2023-05-22T17:14:49.653Z,17.30
2023-05-22T17:18:17.653Z,17.60
2023-05-22T17:21:41.297Z,17.80
2023-05-22T17:25:06.202Z,17.90
2023-05-22T17:28:29.936Z,18.00
2023-05-22T17:31:53.725Z,18.10
2023-05-22T17:35:18.751Z,18.10
2023-05-22T17:38:42.421Z,18.10
2023-05-22T17:42:06.623Z,18.10
2023-05-22T17:45:31.292Z,18.00
2023-05-22T17:48:55.508Z,17.90
2023-05-22T17:52:20.410Z,17.80
2023-05-22T17:55:44.091Z,17.60
2023-05-22T17:59:08.561Z,17.50
2023-05-22T18:02:33.664Z,17.50
2023-05-22T18:05:58.559Z,17.60
2023-05-22T18:09:23.585Z,17.60
2023-05-22T18:12:47.267Z,17.70
2023-05-22T18:16:10.931Z,17.70
2023-05-22T18:19:34.603Z,17.70
2023-05-22T18:22:58.329Z,17.70
2023-05-22T18:26:24.118Z,17.70
2023-05-22T18:29:47.931Z,17.50
2023-05-22T18:33:12.695Z,17.40
2023-05-22T18:36:36.755Z,17.40
2023-05-22T18:40:00.325Z,17.30
2023-05-22T18:43:28.154Z,17.20
2023-05-22T18:46:51.864Z,17.20
2023-05-22T18:50:15.495Z,17.20
2023-05-22T18:53:39.093Z,17.30
2023-05-22T18:57:02.729Z,17.30
2023-05-22T19:00:27.669Z,17.40
2023-05-22T19:03:51.289Z,17.50
2023-05-22T19:07:14.994Z,17.60
2023-05-22T19:10:38.941Z,17.60
2023-05-22T19:14:02.742Z,17.60
2023-05-22T19:17:27.710Z,17.70
2023-05-22T19:20:51.356Z,17.70
2023-05-22T19:24:15.037Z,17.70
2023-05-22T19:27:39.403Z,17.70
2023-05-22T19:31:03.469Z,17.70
2023-05-22T19:34:28.649Z,17.60
2023-05-22T19:37:52.252Z,17.60
2023-05-22T19:41:16.067Z,17.60
2023-05-22T19:44:39.762Z,17.50
2023-05-22T19:48:03.696Z,17.50
2023-05-22T19:51:28.843Z,17.50
2023-05-22T19:54:52.423Z,17.40
2023-05-22T19:58:16.867Z,17.40
2023-05-22T20:01:40.490Z,17.40
2023-05-22T20:05:04.519Z,17.50
2023-05-22T20:08:29.590Z,17.50
2023-05-22T20:11:53.197Z,17.40
2023-05-22T20:15:17.717Z,17.40
2023-05-22T20:18:41.846Z,17.40
2023-05-22T20:22:06.011Z,17.40
2023-05-22T20:25:31.239Z,17.40
2023-05-22T20:28:54.854Z,17.40
2023-05-22T20:32:18.557Z,17.40
2023-05-22T20:35:43.194Z,17.40
2023-05-22T20:39:07.466Z,17.40
2023-05-22T20:42:32.691Z,17.50
2023-05-22T20:45:58.569Z,17.50
2023-05-22T20:49:22.304Z,17.50
2023-05-22T20:52:54.442Z,17.40
2023-05-22T20:56:21.437Z,17.40
2023-05-22T20:59:54.401Z,17.30
2023-05-22T21:03:18.048Z,17.30
2023-05-22T21:06:42.536Z,17.20
2023-05-22T21:10:07.487Z,17.20
2023-05-22T21:13:31.554Z,17.20
2023-05-22T21:16:56.958Z,17.20
2023-05-22T21:20:21.505Z,17.20
2023-05-22T21:23:45.196Z,17.20
2023-05-22T21:27:09.097Z,17.30
2023-05-22T21:30:32.717Z,17.20
2023-05-22T21:33:57.743Z,17.20
2023-05-22T21:37:23.842Z,17.20
2023-05-22T21:40:47.571Z,17.20
2023-05-22T21:44:11.310Z,17.20
2023-05-22T21:47:35.109Z,17.20
2023-05-22T21:51:00.379Z,17.20
2023-05-22T21:54:24.215Z,17.20
2023-05-22T21:57:48.112Z,17.10
2023-05-22T22:01:11.735Z,17.10
2023-05-22T22:04:36.327Z,17.20
2023-05-22T22:08:01.314Z,17.20
2023-05-22T22:11:26.454Z,17.20
2023-05-22T22:14:50.022Z,17.20
2023-05-22T22:18:14.791Z,17.20
2023-05-22T22:21:38.411Z,17.00
2023-05-22T22:25:03.500Z,16.90
2023-05-22T22:28:27.587Z,16.90
2023-05-22T22:31:51.269Z,16.90
2023-05-22T22:35:14.894Z,16.90
2023-05-22T22:38:38.621Z,16.90
2023-05-22T22:42:05.109Z,16.80
2023-05-22T22:45:28.751Z,16.70
2023-05-22T22:48:52.379Z,16.60
2023-05-22T22:52:16.077Z,16.60
2023-05-22T22:55:40.088Z,16.70
2023-05-22T22:59:05.532Z,16.60
2023-05-22T23:02:29.126Z,16.50
2023-05-22T23:05:52.776Z,16.50
2023-05-22T23:09:16.470Z,16.40
2023-05-22T23:12:40.093Z,16.30
2023-05-22T23:16:05.879Z,16.20
2023-05-22T23:19:29.668Z,16.00
2023-05-22T23:22:53.828Z,16.00
2023-05-22T23:26:17.402Z,15.90
2023-05-22T23:29:41.754Z,15.90
2023-05-22T23:33:07.583Z,15.80
2023-05-22T23:36:31.156Z,15.70
2023-05-22T23:39:55.666Z,15.70
2023-05-22T23:43:20.681Z,15.70
2023-05-22T23:46:44.489Z,15.60
2023-05-22T23:50:10.572Z,15.60
2023-05-22T23:53:34.111Z,15.60
2023-05-22T23:56:57.764Z,15.50
